createdAt,value
2018-07-03T00:00:11.327Z,35.60
2018-07-03T00:01:15.730Z,35.60
2018-07-03T00:02:19.147Z,35.50
2018-07-03T00:04:25.995Z,35.70
2018-07-03T00:05:32.918Z,35.80
2018-07-03T00:06:36.339Z,35.90
2018-07-03T00:07:39.723Z,36.00
2018-07-03T00:08:43.113Z,36.60
2018-07-03T00:09:46.543Z,36.00
2018-07-03T00:10:50.904Z,36.10
2018-07-03T00:11:54.307Z,36.30
2018-07-03T00:12:57.679Z,36.60
2018-07-03T00:14:01.069Z,36.60
2018-07-03T00:15:05.806Z,36.60
2018-07-03T00:16:14.193Z,36.60
2018-07-03T00:18:21.715Z,36.70
2018-07-03T00:19:25.158Z,36.70
2018-07-03T00:20:29.983Z,36.80
2018-07-03T00:22:36.535Z,36.90
2018-07-03T00:23:39.947Z,36.90
2018-07-03T00:24:43.919Z,36.90
2018-07-03T00:25:48.255Z,37.00
2018-07-03T00:26:51.691Z,37.00
2018-07-03T00:27:55.075Z,37.10
2018-07-03T00:28:58.453Z,37.20
2018-07-03T00:30:01.836Z,37.20
2018-07-03T00:31:06.220Z,37.10
2018-07-03T00:32:09.643Z,37.10
2018-07-03T00:33:13.027Z,37.10
2018-07-03T00:34:16.410Z,37.10
2018-07-03T00:35:21.567Z,37.10
2018-07-03T00:36:26.112Z,37.10
2018-07-03T00:38:32.627Z,37.20
2018-07-03T00:39:36.002Z,37.20
2018-07-03T00:40:40.956Z,37.20
2018-07-03T00:41:44.383Z,37.20
2018-07-03T00:42:47.783Z,37.70
2018-07-03T00:43:51.155Z,37.20
2018-07-03T00:44:54.535Z,37.20
2018-07-03T00:45:58.867Z,37.40
2018-07-03T00:47:02.283Z,37.30
2018-07-03T00:48:12.259Z,37.40
2018-07-03T00:49:15.651Z,37.40
2018-07-03T00:50:20.101Z,37.40
2018-07-03T00:51:24.258Z,37.40
2018-07-03T00:52:27.692Z,37.50
2018-07-03T00:53:31.072Z,37.50
2018-07-03T00:54:34.604Z,37.60
2018-07-03T00:55:38.976Z,37.60
2018-07-03T00:56:42.375Z,37.70
2018-07-03T00:57:45.781Z,37.80
2018-07-03T00:58:49.183Z,37.70
2018-07-03T01:00:05.481Z,37.80
2018-07-03T01:01:09.933Z,37.90
2018-07-03T01:02:13.376Z,38.00
2018-07-03T01:03:16.775Z,38.00
2018-07-03T01:05:24.441Z,38.60
2018-07-03T01:06:29.031Z,38.10
2018-07-03T01:07:32.457Z,38.20
2018-07-03T01:08:35.836Z,38.20
2018-07-03T01:09:39.219Z,38.20
2018-07-03T01:10:43.642Z,38.20
2018-07-03T01:11:47.548Z,38.20
2018-07-03T01:12:50.960Z,38.30
2018-07-03T01:13:54.431Z,38.30
2018-07-03T01:14:57.808Z,38.40
2018-07-03T01:16:02.314Z,38.40
2018-07-03T01:17:05.723Z,38.40
2018-07-03T01:18:09.124Z,38.50
2018-07-03T01:19:12.547Z,38.50
2018-07-03T01:20:16.925Z,38.50
2018-07-03T01:21:22.336Z,38.50
2018-07-03T01:22:32.061Z,38.60
2018-07-03T01:23:35.455Z,38.50
2018-07-03T01:24:38.986Z,38.60
2018-07-03T01:25:43.489Z,38.60
2018-07-03T01:26:46.896Z,38.60
2018-07-03T01:27:50.295Z,38.80
2018-07-03T01:28:53.963Z,38.80
2018-07-03T01:29:57.347Z,38.80
2018-07-03T01:31:02.033Z,38.80
2018-07-03T01:32:05.487Z,38.90
2018-07-03T01:33:08.969Z,38.90
2018-07-03T01:34:12.347Z,38.80
2018-07-03T01:35:17.744Z,38.90
2018-07-03T01:36:22.164Z,38.90
2018-07-03T01:37:25.600Z,39.00
2018-07-03T01:39:32.093Z,38.90
2018-07-03T01:40:37.253Z,39.00
2018-07-03T01:41:40.655Z,39.00
2018-07-03T01:42:50.447Z,39.10
2018-07-03T01:43:54.099Z,39.10
2018-07-03T01:44:57.668Z,39.10
2018-07-03T01:46:02.095Z,39.10
2018-07-03T01:48:08.615Z,39.10
2018-07-03T01:49:12.004Z,39.00
2018-07-03T01:50:16.497Z,39.00
2018-07-03T01:51:20.996Z,39.00
2018-07-03T01:52:24.411Z,39.00
2018-07-03T01:53:27.819Z,38.90
2018-07-03T01:54:31.211Z,38.90
2018-07-03T01:55:35.659Z,38.90
2018-07-03T01:56:39.075Z,38.90
2018-07-03T01:57:42.471Z,39.00
2018-07-03T01:58:45.859Z,39.00
2018-07-03T01:59:49.251Z,39.00
2018-07-03T02:00:53.764Z,39.10
2018-07-03T02:01:57.175Z,39.00
2018-07-03T02:03:00.547Z,39.00
2018-07-03T02:04:03.931Z,39.00
2018-07-03T02:05:08.329Z,39.00
2018-07-03T02:06:12.670Z,39.00
2018-07-03T02:07:16.072Z,39.00
2018-07-03T02:08:19.463Z,39.00
2018-07-03T02:09:22.863Z,39.00
2018-07-03T02:10:28.222Z,39.10
2018-07-03T02:11:31.657Z,39.20
2018-07-03T02:14:41.219Z,39.60
2018-07-03T02:15:45.745Z,39.90
2018-07-03T02:16:49.147Z,39.80
2018-07-03T02:17:52.534Z,39.90
2018-07-03T02:18:55.931Z,40.10
2018-07-03T02:19:59.327Z,40.10
2018-07-03T02:21:03.879Z,40.70
2018-07-03T02:22:07.359Z,40.20
2018-07-03T02:23:10.744Z,40.40
2018-07-03T02:25:18.237Z,40.60
2018-07-03T02:26:22.755Z,40.70
2018-07-03T02:27:26.135Z,40.80
2018-07-03T02:28:29.507Z,40.80
2018-07-03T02:29:32.879Z,40.90
2018-07-03T02:30:37.368Z,40.90
2018-07-03T02:31:40.804Z,40.80
2018-07-03T02:32:44.187Z,40.90
2018-07-03T02:34:50.647Z,40.80
2018-07-03T02:42:16.992Z,41.20
2018-07-03T02:43:20.375Z,41.20
2018-07-03T02:44:23.759Z,41.20
2018-07-03T02:45:28.253Z,41.30
2018-07-03T02:46:31.701Z,41.30
2018-07-03T02:48:38.235Z,41.40
2018-07-03T02:49:41.629Z,41.50
2018-07-03T02:50:46.059Z,41.60
2018-07-03T02:51:49.488Z,41.60
2018-07-03T02:52:53.092Z,41.60
2018-07-03T02:53:56.475Z,41.60
2018-07-03T02:54:59.863Z,41.80
2018-07-03T02:56:05.260Z,41.80
2018-07-03T02:57:08.684Z,41.90
2018-07-03T02:58:12.067Z,41.90
2018-07-03T02:59:15.456Z,42.20
2018-07-03T03:00:19.899Z,42.10
2018-07-03T03:01:23.997Z,42.20
2018-07-03T03:02:27.411Z,42.20
2018-07-03T03:03:30.791Z,42.30
2018-07-03T03:04:34.332Z,42.30
2018-07-03T03:05:38.782Z,42.30
2018-07-03T03:06:42.216Z,42.30
2018-07-03T03:07:45.607Z,42.50
2018-07-03T03:08:48.979Z,42.40
2018-07-03T03:09:52.360Z,42.30
2018-07-03T03:10:56.901Z,42.40
2018-07-03T03:12:00.307Z,42.30
2018-07-03T03:13:03.695Z,42.30
2018-07-03T03:14:07.072Z,42.30
2018-07-03T03:15:11.907Z,42.30
2018-07-03T03:16:16.656Z,42.30
2018-07-03T03:17:20.108Z,42.20
2018-07-03T03:18:23.492Z,42.20
2018-07-03T03:19:26.876Z,42.20
2018-07-03T03:20:31.384Z,42.20
2018-07-03T03:21:34.794Z,42.20
2018-07-03T03:22:38.200Z,42.10
2018-07-03T03:23:41.575Z,42.10
2018-07-03T03:24:44.960Z,42.10
2018-07-03T03:25:49.840Z,42.10
2018-07-03T03:26:53.231Z,42.30
2018-07-03T03:27:56.707Z,42.40
2018-07-03T03:29:00.092Z,43.20
2018-07-03T03:30:04.217Z,42.70
2018-07-03T03:32:11.340Z,42.90
2018-07-03T03:33:14.747Z,43.00
2018-07-03T03:34:18.135Z,43.50
2018-07-03T03:35:22.662Z,43.00
2018-07-03T03:36:27.144Z,43.10
2018-07-03T03:37:30.563Z,43.00
2018-07-03T03:38:33.979Z,42.90
2018-07-03T03:39:37.359Z,42.90
2018-07-03T03:43:51.747Z,42.60
2018-07-03T03:44:55.123Z,42.60
2018-07-03T03:47:02.221Z,42.60
2018-07-03T03:48:05.669Z,42.50
2018-07-03T03:49:09.059Z,42.50
2018-07-03T03:50:13.369Z,42.50
2018-07-03T03:51:17.932Z,42.50
2018-07-03T03:52:21.339Z,42.50
2018-07-03T03:53:24.726Z,42.50
2018-07-03T03:54:28.127Z,42.50
2018-07-03T03:55:32.723Z,42.40
2018-07-03T03:56:36.143Z,42.40
2018-07-03T03:57:39.527Z,42.30
2018-07-03T03:58:42.924Z,42.20
2018-07-03T03:59:46.323Z,42.10
2018-07-03T04:00:50.713Z,42.10
2018-07-03T04:01:54.111Z,42.10
2018-07-03T04:02:57.491Z,42.10
2018-07-03T04:05:05.120Z,42.00
2018-07-03T04:06:10.215Z,42.00
2018-07-03T04:07:13.627Z,42.10
2018-07-03T04:08:17.032Z,42.10
2018-07-03T04:09:20.404Z,42.10
2018-07-03T04:10:24.823Z,42.10
2018-07-03T04:11:29.179Z,42.20
2018-07-03T04:14:38.708Z,42.30
2018-07-03T04:15:43.271Z,42.30
2018-07-03T04:16:46.679Z,42.40
2018-07-03T04:17:50.143Z,42.40
2018-07-03T04:18:53.520Z,42.30
2018-07-03T04:19:56.895Z,42.30
2018-07-03T04:21:03.778Z,42.40
2018-07-03T04:22:07.207Z,42.30
2018-07-03T04:23:10.591Z,42.30
2018-07-03T04:24:13.975Z,42.30
2018-07-03T04:25:17.909Z,42.20
2018-07-03T04:27:24.847Z,42.20
2018-07-03T04:28:28.227Z,42.30
2018-07-03T04:29:31.613Z,42.30
2018-07-03T04:30:36.111Z,42.40
2018-07-03T04:31:39.552Z,42.50
2018-07-03T04:33:45.999Z,42.50
2018-07-03T04:34:49.379Z,42.50
2018-07-03T04:35:53.308Z,42.60
2018-07-03T04:37:59.788Z,42.60
2018-07-03T04:39:03.323Z,42.60
2018-07-03T04:40:08.106Z,42.60
2018-07-03T04:41:12.555Z,42.60
2018-07-03T04:43:19.611Z,42.60
2018-07-03T04:44:23.020Z,42.60
2018-07-03T04:45:27.504Z,42.60
2018-07-03T04:46:31.138Z,42.60
2018-07-03T04:47:34.516Z,42.60
2018-07-03T04:48:37.948Z,42.60
2018-07-03T04:49:41.339Z,43.10
2018-07-03T04:50:45.797Z,42.60
2018-07-03T04:51:49.268Z,42.60
2018-07-03T04:52:52.651Z,42.60
2018-07-03T04:53:56.031Z,42.70
2018-07-03T04:54:59.451Z,42.80
2018-07-03T04:56:03.864Z,42.80
2018-07-03T04:57:07.295Z,42.80
2018-07-03T04:58:10.688Z,42.90
2018-07-03T04:59:14.085Z,42.90
2018-07-03T05:00:19.293Z,42.80
2018-07-03T05:01:23.599Z,42.80
2018-07-03T05:02:27.127Z,42.70
2018-07-03T05:03:30.511Z,43.20
2018-07-03T05:04:33.927Z,42.70
2018-07-03T05:05:38.421Z,42.70
2018-07-03T05:06:41.863Z,42.70
2018-07-03T05:07:45.255Z,43.20
2018-07-03T05:08:48.648Z,42.70
2018-07-03T05:09:52.032Z,42.70
2018-07-03T05:10:56.668Z,42.70
2018-07-03T05:13:03.194Z,42.90
2018-07-03T05:14:06.813Z,43.10
2018-07-03T05:15:14.118Z,43.10
2018-07-03T05:16:18.526Z,43.20
2018-07-03T05:17:21.983Z,43.30
2018-07-03T05:18:25.368Z,43.40
2018-07-03T05:19:30.436Z,43.60
2018-07-03T05:20:34.830Z,43.70
2018-07-03T05:21:38.247Z,43.70
2018-07-03T05:22:41.671Z,43.80
2018-07-03T05:23:45.050Z,43.90
2018-07-03T05:24:48.511Z,43.50
2018-07-03T05:26:57.083Z,43.40
2018-07-03T05:28:00.476Z,43.20
2018-07-03T05:29:03.868Z,42.60
2018-07-03T05:30:09.228Z,42.50
2018-07-03T05:31:13.604Z,41.40
2018-07-03T05:32:17.016Z,40.90
2018-07-03T05:35:27.891Z,40.00
2018-07-03T05:36:31.291Z,39.60
2018-07-03T05:37:34.812Z,39.30
2018-07-03T05:38:38.120Z,39.30
2018-07-03T05:39:41.522Z,39.50
2018-07-03T05:40:46.116Z,38.90
2018-07-03T05:41:49.624Z,38.70
2018-07-03T05:42:53.014Z,38.50
2018-07-03T05:43:56.411Z,38.30
2018-07-03T05:46:04.782Z,38.00
2018-07-03T05:47:08.200Z,37.70
2018-07-03T05:49:14.664Z,37.20
2018-07-03T05:51:22.931Z,37.10
2018-07-03T05:52:26.304Z,37.10
2018-07-03T05:53:29.703Z,37.00
2018-07-03T05:54:33.079Z,37.00
2018-07-03T05:55:37.403Z,37.10
2018-07-03T05:56:40.812Z,37.10
2018-07-03T06:01:57.199Z,37.20
2018-07-03T06:03:00.603Z,37.10
2018-07-03T06:04:03.996Z,37.00
2018-07-03T06:05:08.399Z,37.00
2018-07-03T06:06:12.763Z,36.80
2018-07-03T06:07:16.620Z,36.70
2018-07-03T06:08:20.020Z,36.60
2018-07-03T06:09:23.507Z,36.50
2018-07-03T06:10:28.154Z,36.40
2018-07-03T06:11:31.723Z,36.10
2018-07-03T06:12:35.175Z,36.10
2018-07-03T06:13:38.694Z,36.20
2018-07-03T06:14:42.122Z,35.80
2018-07-03T06:15:46.556Z,35.80
2018-07-03T06:17:57.424Z,35.70
2018-07-03T06:19:00.815Z,35.70
2018-07-03T06:20:04.773Z,35.60
2018-07-03T06:21:09.252Z,35.50
2018-07-03T06:22:12.663Z,35.50
2018-07-03T06:23:16.056Z,35.40
2018-07-03T06:24:19.468Z,35.50
2018-07-03T06:25:23.945Z,35.50
2018-07-03T06:26:28.500Z,35.50
2018-07-03T06:27:31.684Z,35.50
2018-07-03T06:28:35.067Z,35.50
2018-07-03T06:29:38.451Z,36.00
2018-07-03T06:30:43.776Z,35.50
2018-07-03T06:32:50.795Z,35.80
2018-07-03T06:36:01.576Z,35.70
2018-07-03T06:37:04.987Z,35.70
2018-07-03T06:38:08.369Z,35.70
2018-07-03T06:39:13.315Z,35.70
2018-07-03T06:40:17.709Z,35.70
2018-07-03T06:41:22.638Z,35.70
2018-07-03T06:42:26.058Z,35.60
2018-07-03T06:43:29.443Z,35.50
2018-07-03T06:44:32.839Z,35.50
2018-07-03T06:45:37.162Z,35.50
2018-07-03T06:46:40.596Z,35.60
2018-07-03T06:47:43.983Z,35.60
2018-07-03T06:48:47.571Z,35.60
2018-07-03T06:49:50.979Z,35.60
2018-07-03T06:50:55.825Z,35.80
2018-07-03T06:51:59.264Z,35.90
2018-07-03T06:53:02.643Z,35.90
2018-07-03T06:54:06.024Z,36.10
2018-07-03T06:55:10.459Z,36.00
2018-07-03T06:56:14.957Z,35.90
2018-07-03T06:57:18.392Z,35.90
2018-07-03T06:59:25.308Z,35.90
2018-07-03T07:00:30.632Z,35.60
2018-07-03T07:01:34.639Z,35.50
2018-07-03T07:02:38.046Z,35.50
2018-07-03T07:03:41.419Z,35.50
2018-07-03T07:04:44.844Z,35.40
2018-07-03T07:05:48.970Z,35.30
2018-07-03T07:06:52.389Z,35.30
2018-07-03T07:07:55.803Z,35.40
2018-07-03T07:08:59.317Z,35.80
2018-07-03T07:10:02.711Z,35.40
2018-07-03T07:11:07.170Z,35.40
2018-07-03T07:12:10.608Z,35.40
2018-07-03T07:13:13.999Z,35.40
2018-07-03T07:15:21.515Z,35.50
2018-07-03T07:16:25.963Z,35.50
2018-07-03T07:17:29.401Z,35.60
2018-07-03T07:18:32.809Z,35.60
2018-07-03T07:19:36.400Z,35.60
2018-07-03T07:20:41.002Z,35.60
2018-07-03T07:21:44.399Z,35.50
2018-07-03T07:22:47.792Z,35.40
2018-07-03T07:23:51.175Z,35.40
2018-07-03T07:24:54.569Z,35.20
2018-07-03T07:25:58.769Z,35.10
2018-07-03T07:27:02.345Z,34.90
2018-07-03T07:28:05.744Z,34.90
2018-07-03T07:29:09.633Z,34.90
2018-07-03T07:30:14.049Z,34.80
2018-07-03T07:31:18.673Z,34.90
2018-07-03T07:32:22.107Z,34.90
2018-07-03T07:35:32.707Z,34.40
2018-07-03T07:36:36.108Z,34.10
2018-07-03T07:37:39.511Z,34.10
2018-07-03T07:38:42.904Z,34.10
2018-07-03T07:39:46.283Z,34.10
2018-07-03T07:40:50.811Z,34.20
2018-07-03T07:43:03.859Z,34.70
2018-07-03T07:44:08.008Z,34.40
2018-07-03T07:45:12.447Z,34.10
2018-07-03T07:47:19.623Z,34.00
2018-07-03T07:48:23.036Z,33.70
2018-07-03T07:51:34.715Z,33.60
2018-07-03T07:52:38.111Z,33.60
2018-07-03T07:55:48.664Z,33.40
2018-07-03T07:57:55.168Z,33.70
2018-07-03T07:58:58.686Z,33.20
2018-07-03T08:00:02.109Z,33.20
2018-07-03T08:01:06.502Z,33.20
2018-07-03T08:02:09.923Z,33.20
2018-07-03T08:03:13.350Z,33.20
2018-07-03T08:04:16.732Z,33.20
2018-07-03T08:05:22.015Z,33.20
2018-07-03T08:06:26.157Z,33.20
2018-07-03T08:07:29.615Z,33.20
2018-07-03T08:09:36.107Z,33.50
2018-07-03T08:10:40.717Z,33.40
2018-07-03T08:11:44.139Z,33.30
2018-07-03T08:12:47.545Z,33.30
2018-07-03T08:13:51.083Z,33.30
2018-07-03T08:14:54.480Z,33.30
2018-07-03T08:15:58.928Z,33.30
2018-07-03T08:18:05.504Z,33.30
2018-07-03T08:19:08.904Z,33.30
2018-07-03T08:21:17.114Z,33.50
2018-07-03T08:22:20.511Z,33.40
2018-07-03T08:23:23.891Z,33.30
2018-07-03T08:24:27.428Z,33.20
2018-07-03T08:25:31.877Z,33.20
2018-07-03T08:26:35.396Z,33.20
2018-07-03T08:28:41.888Z,33.80
2018-07-03T08:29:45.279Z,33.20
2018-07-03T08:30:49.716Z,33.20
2018-07-03T08:31:53.141Z,33.30
2018-07-03T08:32:56.667Z,33.30
2018-07-03T08:35:11.118Z,33.30
2018-07-03T08:36:15.608Z,33.20
2018-07-03T08:37:19.040Z,33.10
2018-07-03T08:38:22.429Z,33.20
2018-07-03T08:39:25.806Z,33.20
2018-07-03T08:40:30.363Z,33.20
2018-07-03T08:41:33.795Z,33.20
2018-07-03T08:42:37.591Z,33.20
2018-07-03T08:43:41.036Z,33.10
2018-07-03T08:44:44.434Z,33.20
2018-07-03T08:45:48.869Z,33.30
2018-07-03T08:46:52.279Z,33.30
2018-07-03T08:49:11.907Z,33.60
2018-07-03T08:50:16.360Z,33.60
2018-07-03T08:51:20.827Z,33.60
2018-07-03T08:52:24.255Z,33.60
2018-07-03T08:53:27.723Z,33.60
2018-07-03T08:54:31.108Z,33.60
2018-07-03T08:55:36.156Z,33.70
2018-07-03T08:57:42.675Z,33.80
2018-07-03T08:58:46.063Z,33.90
2018-07-03T08:59:49.451Z,33.80
2018-07-03T09:00:54.138Z,33.90
2018-07-03T09:01:57.551Z,34.00
2018-07-03T09:03:00.964Z,34.00
2018-07-03T09:04:04.368Z,34.00
2018-07-03T09:05:08.935Z,33.90
2018-07-03T09:06:13.521Z,33.90
2018-07-03T09:07:16.948Z,34.00
2018-07-03T09:08:20.375Z,34.00
2018-07-03T09:09:23.776Z,34.00
2018-07-03T09:10:28.895Z,34.00
2018-07-03T09:11:32.393Z,34.00
2018-07-03T09:12:35.759Z,33.90
2018-07-03T09:15:46.508Z,33.80
2018-07-03T09:16:49.982Z,33.80
2018-07-03T09:17:53.391Z,33.40
2018-07-03T09:18:56.771Z,33.90
2018-07-03T09:20:01.276Z,34.00
2018-07-03T09:21:05.698Z,34.00
2018-07-03T09:23:13.770Z,34.40
2018-07-03T09:24:17.163Z,33.70
2018-07-03T09:25:21.634Z,33.40
2018-07-03T09:26:25.845Z,33.10
2018-07-03T09:27:29.307Z,33.10
2018-07-03T09:29:35.771Z,33.30
2018-07-03T09:31:43.339Z,33.30
2018-07-03T09:32:46.758Z,33.40
2018-07-03T09:34:53.291Z,33.40
2018-07-03T09:35:57.805Z,33.40
2018-07-03T09:37:01.220Z,33.30
2018-07-03T09:38:04.628Z,33.00
2018-07-03T09:39:09.804Z,33.40
2018-07-03T09:40:14.259Z,33.30
2018-07-03T09:41:18.753Z,33.20
2018-07-03T09:42:22.227Z,33.10
2018-07-03T09:43:25.591Z,32.50
2018-07-03T09:44:28.995Z,32.20
2018-07-03T09:45:33.915Z,32.00
2018-07-03T09:47:40.447Z,31.00
2018-07-03T09:48:43.853Z,30.70
2018-07-03T09:49:54.106Z,30.80
2018-07-03T09:50:58.620Z,31.00
2018-07-03T09:52:02.027Z,31.20
2018-07-03T09:53:05.717Z,31.10
2018-07-03T09:54:16.564Z,31.10
2018-07-03T09:55:21.589Z,31.10
2018-07-03T09:56:25.797Z,31.10
2018-07-03T09:57:29.203Z,31.40
2018-07-03T09:58:32.632Z,31.40
2018-07-03T09:59:36.019Z,32.00
2018-07-03T10:00:46.053Z,31.50
2018-07-03T10:01:49.480Z,31.50
2018-07-03T10:02:52.947Z,31.50
2018-07-03T10:03:56.347Z,31.60
2018-07-03T10:04:59.731Z,31.50
2018-07-03T10:06:04.164Z,31.30
2018-07-03T10:07:07.602Z,31.10
2018-07-03T10:08:10.991Z,31.00
2018-07-03T10:09:14.431Z,30.60
2018-07-03T10:12:25.788Z,30.30
2018-07-03T10:13:29.215Z,30.40
2018-07-03T10:15:36.688Z,30.60
2018-07-03T10:16:40.239Z,30.70
2018-07-03T10:17:43.627Z,30.70
2018-07-03T10:18:47.040Z,30.90
2018-07-03T10:19:50.443Z,30.90
2018-07-03T10:20:55.369Z,31.00
2018-07-03T10:21:58.767Z,31.10
2018-07-03T10:23:02.169Z,31.20
2018-07-03T10:24:05.591Z,31.40
2018-07-03T10:25:10.102Z,31.40
2018-07-03T10:26:14.456Z,31.10
2018-07-03T10:27:17.848Z,30.30
2018-07-03T10:28:21.227Z,30.20
2018-07-03T10:29:24.613Z,30.40
2018-07-03T10:30:29.121Z,30.60
2018-07-03T10:31:32.548Z,30.60
2018-07-03T10:32:35.931Z,30.90
2018-07-03T10:33:39.307Z,30.90
2018-07-03T10:34:42.685Z,31.00
2018-07-03T10:35:47.198Z,31.10
2018-07-03T10:36:50.601Z,31.00
2018-07-03T10:37:53.979Z,31.10
2018-07-03T10:38:57.363Z,31.20
2018-07-03T10:40:00.755Z,31.20
2018-07-03T10:41:05.146Z,31.10
2018-07-03T10:42:08.632Z,30.80
2018-07-03T10:43:12.024Z,30.70
2018-07-03T10:44:15.395Z,30.70
2018-07-03T10:45:19.815Z,30.80
2018-07-03T10:46:23.997Z,30.70
2018-07-03T10:47:27.383Z,30.80
2018-07-03T10:48:30.766Z,30.90
2018-07-03T10:49:34.147Z,31.00
2018-07-03T10:50:39.131Z,31.50
2018-07-03T10:51:42.572Z,31.10
2018-07-03T10:54:52.143Z,30.90
2018-07-03T10:55:56.495Z,30.80
2018-07-03T10:56:59.903Z,30.80
2018-07-03T10:58:03.295Z,31.30
2018-07-03T11:00:10.836Z,31.10
2018-07-03T11:01:15.366Z,31.20
2018-07-03T11:02:18.784Z,31.70
2018-07-03T11:03:22.187Z,31.40
2018-07-03T11:04:25.582Z,31.30
2018-07-03T11:05:30.185Z,31.20
2018-07-03T11:06:33.599Z,30.80
2018-07-03T11:07:37.043Z,30.80
2018-07-03T11:10:47.676Z,31.00
2018-07-03T11:11:51.091Z,31.10
2018-07-03T11:15:00.687Z,31.00
2018-07-03T11:16:05.110Z,31.10
2018-07-03T11:17:08.539Z,31.00
2018-07-03T11:18:11.939Z,30.90
2018-07-03T11:19:15.323Z,30.90
2018-07-03T11:20:19.847Z,30.90
2018-07-03T11:21:24.566Z,30.90
2018-07-03T11:22:27.960Z,30.80
2018-07-03T11:23:31.367Z,30.90
2018-07-03T11:24:34.759Z,30.90
2018-07-03T11:25:39.070Z,31.00
2018-07-03T11:28:48.691Z,30.80
2018-07-03T11:29:52.103Z,30.70
2018-07-03T11:30:56.812Z,30.60
2018-07-03T11:34:06.418Z,30.50
2018-07-03T11:35:12.541Z,30.70
2018-07-03T11:36:17.048Z,30.70
2018-07-03T11:37:20.446Z,30.60
2018-07-03T11:38:23.827Z,31.10
2018-07-03T11:39:27.231Z,30.90
2018-07-03T11:40:32.273Z,30.90
2018-07-03T11:41:35.879Z,30.80
2018-07-03T11:42:39.263Z,30.90
2018-07-03T11:43:42.671Z,30.80
2018-07-03T11:44:46.107Z,30.70
2018-07-03T11:45:50.900Z,30.90
2018-07-03T11:46:54.308Z,30.90
2018-07-03T11:47:57.700Z,30.60
2018-07-03T11:49:01.161Z,30.50
2018-07-03T11:50:05.755Z,30.50
2018-07-03T11:53:16.207Z,29.90
2018-07-03T11:54:19.618Z,30.00
2018-07-03T11:55:23.545Z,30.00
2018-07-03T11:56:28.368Z,30.00
2018-07-03T11:57:31.995Z,30.00
2018-07-03T11:58:35.371Z,30.00
2018-07-03T11:59:38.807Z,30.00
2018-07-03T12:01:46.140Z,30.00
2018-07-03T12:02:49.527Z,30.00
2018-07-03T12:03:52.924Z,29.90
2018-07-03T12:04:56.415Z,29.80
2018-07-03T12:06:00.868Z,29.70
2018-07-03T12:07:04.275Z,29.70
2018-07-03T12:08:07.669Z,29.70
2018-07-03T12:09:11.699Z,29.70
2018-07-03T12:10:16.204Z,29.90
2018-07-03T12:11:20.789Z,30.70
2018-07-03T12:12:24.239Z,29.90
2018-07-03T12:13:27.621Z,29.80
2018-07-03T12:14:31.015Z,29.80
2018-07-03T12:15:36.024Z,29.70
2018-07-03T12:16:39.451Z,29.70
2018-07-03T12:17:42.835Z,29.70
2018-07-03T12:18:51.643Z,29.50
2018-07-03T12:20:59.988Z,29.50
2018-07-03T12:22:03.419Z,29.50
2018-07-03T12:23:07.283Z,29.50
2018-07-03T12:24:10.667Z,29.40
2018-07-03T12:25:15.201Z,29.50
2018-07-03T12:26:19.963Z,29.40
2018-07-03T12:27:23.387Z,29.40
2018-07-03T12:28:26.767Z,29.50
2018-07-03T12:29:30.152Z,29.40
2018-07-03T12:30:34.413Z,29.40
2018-07-03T12:31:37.840Z,29.40
2018-07-03T12:32:41.463Z,29.30
2018-07-03T12:33:44.869Z,29.20
2018-07-03T12:34:48.243Z,29.00
2018-07-03T12:35:52.706Z,28.80
2018-07-03T12:36:56.147Z,28.60
2018-07-03T12:37:59.527Z,28.70
2018-07-03T12:39:03.362Z,28.90
2018-07-03T12:40:07.785Z,29.20
2018-07-03T12:41:12.325Z,29.10
2018-07-03T12:42:15.770Z,29.10
2018-07-03T12:43:19.209Z,28.80
2018-07-03T12:44:22.607Z,28.70
2018-07-03T12:45:27.020Z,28.70
2018-07-03T12:47:33.600Z,28.60
2018-07-03T12:49:40.102Z,28.70
2018-07-03T12:50:44.557Z,28.70
2018-07-03T12:51:47.979Z,28.60
2018-07-03T12:52:51.377Z,28.60
2018-07-03T12:53:54.751Z,28.50
2018-07-03T12:54:58.143Z,28.50
2018-07-03T12:56:03.297Z,28.50
2018-07-03T12:57:06.708Z,28.50
2018-07-03T12:58:10.111Z,28.50
2018-07-03T13:01:21.764Z,28.30
2018-07-03T13:02:25.212Z,28.10
2018-07-03T13:03:28.631Z,28.10
2018-07-03T13:04:32.019Z,28.10
2018-07-03T13:05:36.383Z,28.10
2018-07-03T13:06:39.800Z,28.10
2018-07-03T13:07:43.245Z,28.20
2018-07-03T13:08:46.639Z,28.20
2018-07-03T13:09:50.038Z,28.10
2018-07-03T13:10:55.010Z,28.10
2018-07-03T13:11:58.425Z,28.00
2018-07-03T13:13:01.803Z,27.90
2018-07-03T13:14:05.219Z,27.80
2018-07-03T13:15:09.774Z,27.70
2018-07-03T13:16:14.114Z,27.80
2018-07-03T13:17:17.527Z,28.20
2018-07-03T13:18:22.287Z,27.90
2018-07-03T13:19:25.719Z,27.80
2018-07-03T13:20:30.295Z,27.70
2018-07-03T13:21:33.728Z,27.70
2018-07-03T13:22:37.103Z,27.60
2018-07-03T13:23:40.519Z,27.60
2018-07-03T13:24:43.915Z,27.40
2018-07-03T13:25:48.934Z,27.50
2018-07-03T13:26:52.343Z,27.40
2018-07-03T13:27:55.735Z,27.20
2018-07-03T13:28:59.135Z,27.20
2018-07-03T13:30:03.215Z,27.10
2018-07-03T13:31:08.544Z,27.00
2018-07-03T13:32:11.950Z,26.90
2018-07-03T13:33:15.335Z,26.80
2018-07-03T13:34:18.746Z,26.90
2018-07-03T13:35:23.160Z,26.90
2018-07-03T13:36:27.700Z,27.00
2018-07-03T13:37:31.051Z,27.10
2018-07-03T13:38:34.435Z,27.10
2018-07-03T13:39:37.823Z,27.10
2018-07-03T13:40:42.381Z,27.10
2018-07-03T13:41:45.799Z,27.20
2018-07-03T13:42:49.183Z,27.20
2018-07-03T13:43:52.579Z,27.20
2018-07-03T13:44:55.955Z,27.20
2018-07-03T13:46:00.299Z,27.10
2018-07-03T13:47:03.693Z,27.10
2018-07-03T13:48:07.253Z,27.00
2018-07-03T13:49:10.652Z,26.80
2018-07-03T13:50:15.130Z,26.60
2018-07-03T13:51:19.568Z,26.50
2018-07-03T13:52:22.967Z,26.40
2018-07-03T13:54:29.527Z,26.60
2018-07-03T13:55:34.454Z,26.30
2018-07-03T13:56:37.887Z,26.10
2018-07-03T13:57:41.267Z,25.80
2018-07-03T13:58:44.643Z,25.90
2018-07-03T13:59:48.029Z,25.70
2018-07-03T14:00:52.595Z,25.70
2018-07-03T14:01:55.983Z,25.80
2018-07-03T14:02:59.399Z,26.00
2018-07-03T14:04:02.787Z,26.50
2018-07-03T14:06:11.390Z,25.90
2018-07-03T14:07:14.789Z,25.80
2018-07-03T14:08:18.199Z,25.80
2018-07-03T14:09:21.599Z,25.80
2018-07-03T14:10:26.170Z,26.20
2018-07-03T14:11:30.188Z,25.60
2018-07-03T14:12:33.572Z,25.50
2018-07-03T14:13:36.944Z,25.40
2018-07-03T14:17:50.488Z,25.30
2018-07-03T14:19:56.986Z,24.80
2018-07-03T14:21:02.389Z,24.60
2018-07-03T14:22:05.859Z,24.40
2018-07-03T14:23:09.216Z,24.60
2018-07-03T14:24:12.608Z,24.70
2018-07-03T14:25:16.956Z,24.60
2018-07-03T14:26:21.579Z,24.50
2018-07-03T14:27:24.999Z,24.60
2018-07-03T14:28:28.409Z,24.60
2018-07-03T14:29:31.838Z,24.60
2018-07-03T14:30:36.351Z,24.70
2018-07-03T14:31:39.792Z,24.60
2018-07-03T14:32:43.164Z,24.40
2018-07-03T14:33:46.551Z,24.50
2018-07-03T14:34:49.935Z,24.60
2018-07-03T14:35:54.425Z,24.50
2018-07-03T14:36:57.841Z,24.30
2018-07-03T14:38:01.244Z,23.90
2018-07-03T14:39:08.968Z,23.50
2018-07-03T14:40:14.148Z,23.50
2018-07-03T14:41:18.653Z,23.60
2018-07-03T14:44:28.243Z,24.30
2018-07-03T14:45:32.616Z,24.00
2018-07-03T14:46:36.200Z,23.90
2018-07-03T14:47:39.603Z,23.80
2018-07-03T14:48:42.991Z,23.60
2018-07-03T14:49:46.370Z,24.00
2018-07-03T14:50:50.961Z,23.60
2018-07-03T14:51:54.375Z,23.60
2018-07-03T14:52:57.759Z,23.60
2018-07-03T14:54:01.147Z,23.70
2018-07-03T14:55:05.103Z,23.80
2018-07-03T14:56:10.421Z,23.60
2018-07-03T14:57:13.855Z,23.60
2018-07-03T14:58:17.253Z,23.50
2018-07-03T14:59:20.629Z,23.60
2018-07-03T15:00:25.029Z,23.50
2018-07-03T15:01:29.519Z,23.50
2018-07-03T15:02:32.919Z,23.50
2018-07-03T15:03:36.291Z,23.30
2018-07-03T15:04:39.676Z,23.20
2018-07-03T15:05:44.045Z,23.10
2018-07-03T15:06:47.444Z,22.90
2018-07-03T15:07:50.859Z,22.90
2018-07-03T15:08:54.451Z,23.00
2018-07-03T15:09:57.923Z,23.30
2018-07-03T15:11:03.410Z,23.20
2018-07-03T15:13:09.895Z,23.00
2018-07-03T15:14:13.443Z,23.10
2018-07-03T15:15:17.866Z,23.30
2018-07-03T15:16:22.287Z,23.40
2018-07-03T15:17:25.683Z,23.30
2018-07-03T15:18:34.531Z,23.10
2018-07-03T15:19:43.253Z,23.20
2018-07-03T15:20:48.801Z,23.30
2018-07-03T15:21:52.203Z,23.60
2018-07-03T15:22:55.579Z,23.30
2018-07-03T15:23:58.963Z,23.40
2018-07-03T15:25:02.420Z,23.50
2018-07-03T15:26:07.049Z,23.50
2018-07-03T15:27:10.459Z,23.60
2018-07-03T15:28:13.839Z,23.60
2018-07-03T15:29:17.255Z,23.60